createdAt,value
2019-04-13T00:00:07.890Z,1012.04
2019-04-13T00:01:07.878Z,1012.05
2019-04-13T00:02:07.870Z,1011.99
2019-04-13T00:03:07.853Z,1012.02
2019-04-13T00:04:07.843Z,1012.02
2019-04-13T00:05:07.835Z,1011.99
2019-04-13T00:06:07.824Z,1011.97
2019-04-13T00:07:07.812Z,1011.99
2019-04-13T00:08:07.801Z,1011.98
2019-04-13T00:09:07.791Z,1011.97
2019-04-13T00:10:07.777Z,1011.97
2019-04-13T00:11:07.772Z,1011.97
2019-04-13T00:12:07.757Z,1011.97
2019-04-13T00:13:07.747Z,1012.00
2019-04-13T00:14:07.746Z,1012.06
2019-04-13T00:15:07.726Z,1012.00
2019-04-13T00:16:07.765Z,1012.01
2019-04-13T00:17:07.699Z,1011.94
2019-04-13T00:18:07.688Z,1011.97
2019-04-13T00:19:07.680Z,1011.93
2019-04-13T00:20:07.668Z,1011.94
2019-04-13T00:21:07.660Z,1011.91
2019-04-13T00:22:07.642Z,1011.92
2019-04-13T00:23:07.632Z,1011.89
2019-04-13T00:24:07.621Z,1011.91
2019-04-13T00:25:07.618Z,1011.95
2019-04-13T00:26:07.602Z,1011.90
2019-04-13T00:27:07.599Z,1011.90
2019-04-13T00:28:07.576Z,1011.92
2019-04-13T00:29:07.566Z,1011.90
2019-04-13T00:30:07.556Z,1011.91
2019-04-13T00:31:07.547Z,1011.89
2019-04-13T00:32:07.535Z,1011.87
2019-04-13T00:33:07.531Z,1011.85
2019-04-13T00:34:07.511Z,1011.88
2019-04-13T00:35:07.498Z,1011.85
2019-04-13T00:36:08.274Z,1011.81
2019-04-13T00:37:07.480Z,1011.82
2019-04-13T00:38:07.471Z,1011.82
2019-04-13T00:39:07.459Z,1011.87
2019-04-13T00:40:07.447Z,1011.83
2019-04-13T00:41:07.441Z,1011.83
2019-04-13T00:42:07.425Z,1011.85
2019-04-13T00:43:07.413Z,1011.81
2019-04-13T00:44:07.405Z,1011.84
2019-04-13T00:45:07.391Z,1011.81
2019-04-13T00:46:07.378Z,1011.80
2019-04-13T00:47:07.365Z,1011.80
2019-04-13T00:48:07.357Z,1011.78
2019-04-13T00:49:07.345Z,1011.78
2019-04-13T00:50:07.347Z,1011.77
2019-04-13T00:51:07.325Z,1011.75
2019-04-13T00:52:07.310Z,1011.79
2019-04-13T00:53:07.300Z,1011.82
2019-04-13T00:54:07.291Z,1011.78
2019-04-13T00:55:07.279Z,1011.76
2019-04-13T00:56:07.270Z,1011.75
2019-04-13T00:57:07.257Z,1011.77
2019-04-13T00:58:07.242Z,1011.74
2019-04-13T00:59:07.237Z,1011.74
2019-04-13T01:00:07.225Z,1011.74
2019-04-13T01:01:07.212Z,1011.74
2019-04-13T01:02:07.200Z,1011.74
2019-04-13T01:03:07.191Z,1011.75
2019-04-13T01:04:07.179Z,1011.72
2019-04-13T01:05:07.166Z,1011.71
2019-04-13T01:06:07.156Z,1011.71
2019-04-13T01:07:07.146Z,1011.71
2019-04-13T01:08:07.131Z,1011.72
2019-04-13T01:09:07.135Z,1011.70
2019-04-13T01:10:07.108Z,1011.75
2019-04-13T01:11:07.101Z,1011.71
2019-04-13T01:12:07.089Z,1011.69
2019-04-13T01:13:07.078Z,1011.69
2019-04-13T01:14:07.067Z,1011.69
2019-04-13T01:15:07.053Z,1011.70
2019-04-13T01:16:07.041Z,1011.67
2019-04-13T01:17:07.034Z,1011.69
2019-04-13T01:18:07.022Z,1011.67
2019-04-13T01:19:07.013Z,1011.70
2019-04-13T01:20:07.000Z,1011.74
2019-04-13T01:21:06.990Z,1011.69
2019-04-13T01:22:06.975Z,1011.68
2019-04-13T01:23:06.967Z,1011.73
2019-04-13T01:24:06.964Z,1011.66
2019-04-13T01:25:06.943Z,1011.69
2019-04-13T01:26:06.933Z,1011.63
2019-04-13T01:27:06.918Z,1011.61
2019-04-13T01:28:06.925Z,1011.64
2019-04-13T01:29:06.901Z,1011.65
2019-04-13T01:30:06.886Z,1011.64
2019-04-13T01:31:06.877Z,1011.63
2019-04-13T01:32:06.866Z,1011.64
2019-04-13T01:33:06.852Z,1011.65
2019-04-13T01:34:06.839Z,1011.65
2019-04-13T01:35:06.830Z,1011.64
2019-04-13T01:36:06.821Z,1011.65
2019-04-13T01:37:06.809Z,1011.64
2019-04-13T01:38:06.796Z,1011.62
2019-04-13T01:39:06.784Z,1011.63
2019-04-13T01:40:06.777Z,1011.63
2019-04-13T01:41:06.764Z,1011.63
2019-04-13T01:42:06.752Z,1011.61
2019-04-13T01:43:06.739Z,1011.59
2019-04-13T01:44:06.731Z,1011.60
2019-04-13T01:45:06.718Z,1011.61
2019-04-13T01:46:06.717Z,1011.57
2019-04-13T01:47:06.696Z,1011.57
2019-04-13T01:48:06.687Z,1011.56
2019-04-13T01:49:06.679Z,1011.56
2019-04-13T01:50:06.662Z,1011.53
2019-04-13T01:51:06.653Z,1011.52
2019-04-13T01:52:06.640Z,1011.52
2019-04-13T01:53:06.630Z,1011.52
2019-04-13T01:54:06.619Z,1011.55
2019-04-13T01:55:06.610Z,1011.49
2019-04-13T01:56:06.598Z,1011.49
2019-04-13T01:57:06.584Z,1011.50
2019-04-13T01:58:06.577Z,1011.50
2019-04-13T01:59:06.571Z,1011.49
2019-04-13T02:00:06.553Z,1011.46
2019-04-13T02:01:06.544Z,1011.47
2019-04-13T02:02:06.530Z,1011.45
2019-04-13T02:03:06.517Z,1011.42
2019-04-13T02:04:06.510Z,1011.42
2019-04-13T02:05:17.749Z,1011.46
2019-04-13T02:06:06.489Z,1011.43
2019-04-13T02:07:06.474Z,1011.44
2019-04-13T02:08:06.463Z,1011.44
2019-04-13T02:09:06.447Z,1011.44
2019-04-13T02:10:06.441Z,1011.43
2019-04-13T02:11:06.428Z,1011.40
2019-04-13T02:12:06.419Z,1011.45
2019-04-13T02:13:06.404Z,1011.42
2019-04-13T02:14:06.393Z,1011.41
2019-04-13T02:15:06.385Z,1011.40
2019-04-13T02:16:06.374Z,1011.43
2019-04-13T02:17:06.362Z,1011.40
2019-04-13T02:18:06.347Z,1011.35
2019-04-13T02:19:06.340Z,1011.40
2019-04-13T02:20:06.328Z,1011.39
2019-04-13T02:21:06.316Z,1011.36
2019-04-13T02:22:06.305Z,1011.37
2019-04-13T02:23:06.291Z,1011.36
2019-04-13T02:24:06.284Z,1011.35
2019-04-13T02:25:06.271Z,1011.32
2019-04-13T02:26:06.261Z,1011.29
2019-04-13T02:27:06.248Z,1011.32
2019-04-13T02:28:06.234Z,1011.32
2019-04-13T02:29:06.229Z,1011.29
2019-04-13T02:30:06.214Z,1011.30
2019-04-13T02:31:06.204Z,1011.25
2019-04-13T02:32:06.194Z,1011.21
2019-04-13T02:33:06.188Z,1011.24
2019-04-13T02:34:06.172Z,1011.26
2019-04-13T02:35:06.159Z,1011.25
2019-04-13T02:36:06.146Z,1011.24
2019-04-13T02:37:06.134Z,1011.25
2019-04-13T02:38:06.122Z,1011.31
2019-04-13T02:39:06.113Z,1011.30
2019-04-13T02:40:06.776Z,1011.29
2019-04-13T02:41:06.092Z,1011.32
2019-04-13T02:42:06.078Z,1011.35
2019-04-13T02:43:06.063Z,1011.31
2019-04-13T02:44:06.059Z,1011.30
2019-04-13T02:45:06.054Z,1011.35
2019-04-13T02:46:06.040Z,1011.32
2019-04-13T02:47:06.023Z,1011.29
2019-04-13T02:48:06.008Z,1011.26
2019-04-13T02:49:06.001Z,1011.26
2019-04-13T02:50:05.993Z,1011.25
2019-04-13T02:51:05.977Z,1011.21
2019-04-13T02:52:05.970Z,1011.17
2019-04-13T02:53:05.952Z,1011.21
2019-04-13T02:54:05.944Z,1011.26
2019-04-13T02:55:05.933Z,1011.23
2019-04-13T02:56:05.915Z,1011.26
2019-04-13T02:57:05.907Z,1011.22
2019-04-13T02:58:05.894Z,1011.21
2019-04-13T02:59:05.885Z,1011.17
2019-04-13T03:00:05.874Z,1011.20
2019-04-13T03:01:05.866Z,1011.17
2019-04-13T03:02:05.848Z,1011.14
2019-04-13T03:03:05.881Z,1011.21
2019-04-13T03:04:05.828Z,1011.15
2019-04-13T03:05:05.822Z,1011.15
2019-04-13T03:06:05.806Z,1011.19
2019-04-13T03:07:05.796Z,1011.20
2019-04-13T03:08:05.781Z,1011.19
2019-04-13T03:09:05.769Z,1011.17
2019-04-13T03:10:05.764Z,1011.18
2019-04-13T03:11:05.749Z,1011.18
2019-04-13T03:12:05.741Z,1011.18
2019-04-13T03:13:05.726Z,1011.17
2019-04-13T03:14:05.712Z,1011.19
2019-04-13T03:15:05.706Z,1011.21
2019-04-13T03:16:05.696Z,1011.21
2019-04-13T03:17:05.687Z,1011.19
2019-04-13T03:18:05.666Z,1011.15
2019-04-13T03:19:05.657Z,1011.18
2019-04-13T03:20:05.648Z,1011.17
2019-04-13T03:21:05.637Z,1011.20
2019-04-13T03:22:05.625Z,1011.18
2019-04-13T03:23:05.612Z,1011.20
2019-04-13T03:24:05.600Z,1011.19
2019-04-13T03:25:05.595Z,1011.16
2019-04-13T03:26:05.580Z,1011.20
2019-04-13T03:27:05.569Z,1011.17
2019-04-13T03:28:05.553Z,1011.18
2019-04-13T03:29:05.542Z,1011.22
2019-04-13T03:30:05.534Z,1011.21
2019-04-13T03:31:05.523Z,1011.16
2019-04-13T03:32:05.512Z,1011.20
2019-04-13T03:33:05.505Z,1011.18
2019-04-13T03:34:05.485Z,1011.20
2019-04-13T03:35:05.485Z,1011.17
2019-04-13T03:36:05.470Z,1011.18
2019-04-13T03:37:05.451Z,1011.18
2019-04-13T03:38:05.441Z,1011.14
2019-04-13T03:39:05.434Z,1011.14
2019-04-13T03:40:05.420Z,1011.14
2019-04-13T03:41:05.409Z,1011.14
2019-04-13T03:42:05.395Z,1011.17
2019-04-13T03:43:05.381Z,1011.14
2019-04-13T03:44:05.370Z,1011.12
2019-04-13T03:45:05.362Z,1011.13
2019-04-13T03:46:05.349Z,1011.14
2019-04-13T03:47:05.339Z,1011.09
2019-04-13T03:48:05.327Z,1011.08
2019-04-13T03:49:05.316Z,1011.08
2019-04-13T03:50:05.306Z,1011.10
2019-04-13T03:51:05.295Z,1011.08
2019-04-13T03:52:05.287Z,1011.11
2019-04-13T03:53:05.269Z,1011.13
2019-04-13T03:54:05.258Z,1011.13
2019-04-13T03:55:05.245Z,1011.09
2019-04-13T03:56:05.237Z,1011.10
2019-04-13T03:57:05.227Z,1011.09
2019-04-13T03:58:05.216Z,1011.09
2019-04-13T03:59:05.200Z,1011.08
2019-04-13T04:00:05.193Z,1011.10
2019-04-13T04:01:05.177Z,1011.11
2019-04-13T04:02:05.169Z,1011.09
2019-04-13T04:03:05.155Z,1011.03
2019-04-13T04:04:05.145Z,1011.06
2019-04-13T04:05:05.134Z,1011.08
2019-04-13T04:06:11.484Z,1011.08
2019-04-13T04:07:05.108Z,1011.08
2019-04-13T04:08:05.097Z,1011.06
2019-04-13T04:09:05.085Z,1011.11
2019-04-13T04:10:05.078Z,1011.05
2019-04-13T04:11:05.067Z,1011.10
2019-04-13T04:12:05.052Z,1011.07
2019-04-13T04:13:05.040Z,1011.07
2019-04-13T04:14:05.030Z,1011.07
2019-04-13T04:15:05.018Z,1011.12
2019-04-13T04:16:05.009Z,1011.10
2019-04-13T04:17:04.998Z,1011.09
2019-04-13T04:18:04.986Z,1011.07
2019-04-13T04:19:04.972Z,1011.07
2019-04-13T04:20:04.969Z,1011.10
2019-04-13T04:21:04.949Z,1011.11
2019-04-13T04:22:04.940Z,1011.09
2019-04-13T04:23:04.931Z,1011.09
2019-04-13T04:24:04.914Z,1011.12
2019-04-13T04:25:04.902Z,1011.12
2019-04-13T04:26:04.894Z,1011.14
2019-04-13T04:27:04.881Z,1011.16
2019-04-13T04:28:04.870Z,1011.18
2019-04-13T04:29:04.858Z,1011.21
2019-04-13T04:30:04.847Z,1011.22
2019-04-13T04:31:04.835Z,1011.16
2019-04-13T04:32:04.852Z,1011.18
2019-04-13T04:33:04.815Z,1011.24
2019-04-13T04:34:04.797Z,1011.22
2019-04-13T04:35:04.790Z,1011.23
2019-04-13T04:36:04.777Z,1011.28
2019-04-13T04:37:04.763Z,1011.25
2019-04-13T04:38:04.755Z,1011.22
2019-04-13T04:39:04.741Z,1011.28
2019-04-13T04:40:04.733Z,1011.28
2019-04-13T04:41:04.720Z,1011.26
2019-04-13T04:42:04.709Z,1011.21
2019-04-13T04:43:04.700Z,1011.24
2019-04-13T04:44:04.681Z,1011.17
2019-04-13T04:45:04.677Z,1011.25
2019-04-13T04:46:04.660Z,1011.21
2019-04-13T04:47:04.652Z,1011.20
2019-04-13T04:48:04.638Z,1011.23
2019-04-13T04:49:04.625Z,1011.29
2019-04-13T04:50:04.616Z,1011.30
2019-04-13T04:51:10.854Z,1011.31
2019-04-13T04:52:04.601Z,1011.31
2019-04-13T04:53:04.577Z,1011.32
2019-04-13T04:54:04.566Z,1011.30
2019-04-13T04:55:04.555Z,1011.29
2019-04-13T04:56:04.552Z,1011.29
2019-04-13T04:57:04.534Z,1011.27
2019-04-13T04:58:04.520Z,1011.29
2019-04-13T04:59:04.537Z,1011.37
2019-04-13T05:00:04.504Z,1011.33
2019-04-13T05:01:04.491Z,1011.35
2019-04-13T05:02:04.764Z,1011.35
2019-04-13T05:03:04.463Z,1011.36
2019-04-13T05:04:04.453Z,1011.30
2019-04-13T05:05:04.443Z,1011.40
2019-04-13T05:06:04.427Z,1011.36
2019-04-13T05:07:04.421Z,1011.36
2019-04-13T05:08:11.604Z,1011.37
2019-04-13T05:09:04.392Z,1011.35
2019-04-13T05:10:04.383Z,1011.40
2019-04-13T05:11:04.372Z,1011.41
2019-04-13T05:12:04.363Z,1011.36
2019-04-13T05:13:04.346Z,1011.39
2019-04-13T05:14:04.344Z,1011.35
2019-04-13T05:15:04.326Z,1011.36
2019-04-13T05:16:04.316Z,1011.40
2019-04-13T05:17:04.304Z,1011.45
2019-04-13T05:18:04.287Z,1011.40
2019-04-13T05:19:04.278Z,1011.40
2019-04-13T05:20:04.268Z,1011.42
2019-04-13T05:21:04.269Z,1011.38
2019-04-13T05:22:04.250Z,1011.38
2019-04-13T05:23:04.233Z,1011.39
2019-04-13T05:24:04.221Z,1011.41
2019-04-13T05:25:04.210Z,1011.41
2019-04-13T05:26:04.196Z,1011.40
2019-04-13T05:27:04.188Z,1011.43
2019-04-13T05:28:04.173Z,1011.41
2019-04-13T05:29:04.165Z,1011.40
2019-04-13T05:30:04.153Z,1011.42
2019-04-13T05:31:04.145Z,1011.42
2019-04-13T05:32:04.136Z,1011.43
2019-04-13T05:33:04.120Z,1011.44
2019-04-13T05:34:04.107Z,1011.45
2019-04-13T05:35:04.097Z,1011.45
2019-04-13T05:36:04.081Z,1011.47
2019-04-13T05:37:04.073Z,1011.49
2019-04-13T05:38:04.058Z,1011.54
2019-04-13T05:39:04.842Z,1011.48
2019-04-13T05:40:04.038Z,1011.50
2019-04-13T05:41:04.024Z,1011.53
2019-04-13T05:42:04.015Z,1011.51
2019-04-13T05:43:04.002Z,1011.56
2019-04-13T05:44:03.997Z,1011.52
2019-04-13T05:45:03.982Z,1011.56
2019-04-13T05:46:03.971Z,1011.55
2019-04-13T05:47:03.957Z,1011.55
2019-04-13T05:48:03.945Z,1011.62
2019-04-13T05:49:03.935Z,1011.63
2019-04-13T05:50:03.925Z,1011.60
2019-04-13T05:51:03.916Z,1011.59
2019-04-13T05:52:03.902Z,1011.63
2019-04-13T05:53:03.887Z,1011.65
2019-04-13T05:54:03.878Z,1011.62
2019-04-13T05:55:03.867Z,1011.65
2019-04-13T05:56:03.856Z,1011.62
2019-04-13T05:57:03.849Z,1011.64
2019-04-13T05:58:03.846Z,1011.62
2019-04-13T05:59:03.840Z,1011.62
2019-04-13T06:00:03.811Z,1011.65
2019-04-13T06:01:03.800Z,1011.63
2019-04-13T06:02:03.787Z,1011.63
2019-04-13T06:03:06.391Z,1011.63
2019-04-13T06:04:05.664Z,1011.69
2019-04-13T06:05:03.753Z,1011.67
2019-04-13T06:06:03.796Z,1011.70
2019-04-13T06:07:03.732Z,1011.70
2019-04-13T06:08:03.718Z,1011.68
2019-04-13T06:09:03.711Z,1011.68
2019-04-13T06:10:03.689Z,1011.73
2019-04-13T06:11:03.682Z,1011.73
2019-04-13T06:12:03.672Z,1011.75
2019-04-13T06:13:03.659Z,1011.76
2019-04-13T06:14:03.652Z,1011.77
2019-04-13T06:15:03.669Z,1011.77
2019-04-13T06:16:06.683Z,1011.80
2019-04-13T06:17:03.614Z,1011.79
2019-04-13T06:18:06.911Z,1011.82
2019-04-13T06:19:03.594Z,1011.79
2019-04-13T06:20:03.597Z,1011.82
2019-04-13T06:21:04.434Z,1011.83
2019-04-13T06:22:03.557Z,1011.87
2019-04-13T06:23:03.550Z,1011.84
2019-04-13T06:24:03.538Z,1011.86
2019-04-13T06:25:03.547Z,1011.84
2019-04-13T06:26:04.356Z,1011.85
2019-04-13T06:27:03.504Z,1011.87
2019-04-13T06:28:03.495Z,1011.82
2019-04-13T06:29:04.960Z,1011.87
2019-04-13T06:30:03.473Z,1011.88
2019-04-13T06:31:03.461Z,1011.90
2019-04-13T06:32:03.449Z,1011.88
2019-04-13T06:33:03.453Z,1011.86
2019-04-13T06:34:03.426Z,1011.85
2019-04-13T06:35:03.416Z,1011.84
2019-04-13T06:36:03.408Z,1011.87
2019-04-13T06:37:12.194Z,1011.90
2019-04-13T06:38:03.383Z,1011.88
2019-04-13T06:39:03.372Z,1011.86
2019-04-13T06:40:03.365Z,1011.87
2019-04-13T06:41:03.356Z,1011.88
2019-04-13T06:42:03.341Z,1011.88
2019-04-13T06:43:03.323Z,1011.86
2019-04-13T06:44:03.319Z,1011.90
2019-04-13T06:45:03.310Z,1011.90
2019-04-13T06:46:03.292Z,1011.88
2019-04-13T06:47:03.285Z,1011.88
2019-04-13T06:48:03.271Z,1011.88
2019-04-13T06:49:03.262Z,1011.85
2019-04-13T06:50:03.252Z,1011.81
2019-04-13T06:51:03.243Z,1011.83
2019-04-13T06:52:04.070Z,1011.85
2019-04-13T06:53:07.345Z,1011.83
2019-04-13T06:54:03.210Z,1011.84
2019-04-13T06:55:03.198Z,1011.88
2019-04-13T06:56:03.251Z,1011.93
2019-04-13T06:57:03.175Z,1011.90
2019-04-13T06:58:03.161Z,1011.86
2019-04-13T06:59:03.153Z,1011.93
2019-04-13T07:00:03.146Z,1011.91
2019-04-13T07:01:03.132Z,1011.89
2019-04-13T07:02:03.119Z,1011.93
2019-04-13T07:03:03.111Z,1011.94
2019-04-13T07:04:03.098Z,1011.91
2019-04-13T07:05:03.087Z,1011.96
2019-04-13T07:06:03.075Z,1011.93
2019-04-13T07:07:03.065Z,1011.95
2019-04-13T07:08:03.059Z,1011.94
2019-04-13T07:09:03.044Z,1011.95
2019-04-13T07:10:03.029Z,1011.94
2019-04-13T07:11:03.024Z,1011.99
2019-04-13T07:12:03.012Z,1012.03
2019-04-13T07:13:03.002Z,1012.00
2019-04-13T07:14:02.992Z,1012.03
2019-04-13T07:15:02.982Z,1012.03
2019-04-13T07:16:02.968Z,1012.03
2019-04-13T07:17:02.957Z,1012.01
2019-04-13T07:18:02.953Z,1012.05
2019-04-13T07:19:06.147Z,1012.07
2019-04-13T07:20:02.931Z,1012.04
2019-04-13T07:21:02.916Z,1012.08
2019-04-13T07:22:02.905Z,1012.09
2019-04-13T07:23:02.904Z,1012.05
2019-04-13T07:24:02.885Z,1012.04
2019-04-13T07:25:02.947Z,1012.05
2019-04-13T07:26:06.029Z,1012.10
2019-04-13T07:27:02.853Z,1012.08
2019-04-13T07:28:02.841Z,1012.10
2019-04-13T07:29:02.837Z,1012.07
2019-04-13T07:30:02.823Z,1012.06
2019-04-13T07:31:02.812Z,1012.10
2019-04-13T07:32:02.803Z,1012.09
2019-04-13T07:33:02.788Z,1012.09
2019-04-13T07:34:02.776Z,1012.13
2019-04-13T07:35:05.412Z,1012.10
2019-04-13T07:36:02.762Z,1012.12
2019-04-13T07:37:02.753Z,1012.11
2019-04-13T07:38:02.736Z,1012.16
2019-04-13T07:39:02.724Z,1012.15
2019-04-13T07:40:02.724Z,1012.13
2019-04-13T07:41:02.709Z,1012.14
2019-04-13T07:42:04.972Z,1012.17
2019-04-13T07:43:02.683Z,1012.14
2019-04-13T07:44:02.676Z,1012.22
2019-04-13T07:45:02.666Z,1012.20
2019-04-13T07:46:02.653Z,1012.23
2019-04-13T07:47:02.643Z,1012.22
2019-04-13T07:48:02.638Z,1012.24
2019-04-13T07:49:02.619Z,1012.21
2019-04-13T07:50:02.609Z,1012.23
2019-04-13T07:51:02.597Z,1012.17
2019-04-13T07:52:02.591Z,1012.19
2019-04-13T07:53:03.470Z,1012.17
2019-04-13T07:54:04.335Z,1012.17
2019-04-13T07:55:02.565Z,1012.18
2019-04-13T07:56:02.548Z,1012.22
2019-04-13T07:57:04.974Z,1012.19
2019-04-13T07:58:02.526Z,1012.20
2019-04-13T07:59:02.513Z,1012.23
2019-04-13T08:00:02.510Z,1012.14
2019-04-13T08:01:02.495Z,1012.18
2019-04-13T08:02:02.485Z,1012.16
2019-04-13T08:03:02.473Z,1012.18
2019-04-13T08:04:02.462Z,1012.22
2019-04-13T08:05:02.455Z,1012.19
2019-04-13T08:06:02.443Z,1012.20
2019-04-13T08:07:06.015Z,1012.23
2019-04-13T08:08:02.422Z,1012.16
2019-04-13T08:09:02.412Z,1012.14
2019-04-13T08:10:02.403Z,1012.17
2019-04-13T08:11:02.396Z,1012.20
2019-04-13T08:12:02.383Z,1012.18
2019-04-13T08:13:02.370Z,1012.19
2019-04-13T08:14:02.367Z,1012.12
2019-04-13T08:15:02.352Z,1012.16
2019-04-13T08:16:02.341Z,1012.16
2019-04-13T08:17:06.060Z,1012.14
2019-04-13T08:18:02.320Z,1012.14
2019-04-13T08:19:02.310Z,1012.17
2019-04-13T08:20:02.300Z,1012.16
2019-04-13T08:21:05.476Z,1012.17
2019-04-13T08:22:04.750Z,1012.13
2019-04-13T08:23:02.269Z,1012.13
2019-04-13T08:24:02.282Z,1012.13
2019-04-13T08:25:02.255Z,1012.12
2019-04-13T08:26:02.237Z,1012.14
2019-04-13T08:27:02.228Z,1012.11
2019-04-13T08:28:02.223Z,1012.15
2019-04-13T08:29:02.216Z,1012.09
2019-04-13T08:30:02.205Z,1012.09
2019-04-13T08:31:02.210Z,1012.11
2019-04-13T08:32:02.692Z,1012.12
2019-04-13T08:33:02.176Z,1012.17
2019-04-13T08:34:02.162Z,1012.12
2019-04-13T08:35:02.155Z,1012.11
2019-04-13T08:36:02.143Z,1012.08
2019-04-13T08:37:03.783Z,1012.09
2019-04-13T08:38:12.838Z,1012.07
2019-04-13T08:39:02.112Z,1012.10
2019-04-13T08:40:02.882Z,1012.13
2019-04-13T08:41:10.950Z,1012.15
2019-04-13T08:42:02.084Z,1012.07
2019-04-13T08:43:02.072Z,1012.10
2019-04-13T08:44:05.710Z,1012.13
2019-04-13T08:45:02.056Z,1012.13
2019-04-13T08:46:02.043Z,1012.13
2019-04-13T08:47:02.034Z,1012.10
2019-04-13T08:48:02.022Z,1012.13
2019-04-13T08:49:02.071Z,1012.11
2019-04-13T08:50:02.004Z,1012.12
2019-04-13T08:51:01.997Z,1012.09
2019-04-13T08:52:01.987Z,1012.10
2019-04-13T08:53:01.977Z,1012.10
2019-04-13T08:54:01.964Z,1012.10
2019-04-13T08:55:02.017Z,1012.09
2019-04-13T08:56:01.948Z,1012.08
2019-04-13T08:57:04.586Z,1012.01
2019-04-13T08:58:01.926Z,1012.04
2019-04-13T08:59:02.135Z,1012.05
2019-04-13T09:00:01.908Z,1011.98
2019-04-13T09:01:01.897Z,1011.98
2019-04-13T09:02:01.884Z,1011.98
2019-04-13T09:03:01.878Z,1011.97
2019-04-13T09:04:01.873Z,1011.99
2019-04-13T09:05:04.266Z,1011.97
2019-04-13T09:06:01.847Z,1011.94
2019-04-13T09:07:01.840Z,1011.94
2019-04-13T09:08:01.829Z,1011.95
2019-04-13T09:09:02.828Z,1011.90
2019-04-13T09:10:02.912Z,1011.93
2019-04-13T09:11:02.225Z,1011.89
2019-04-13T09:12:06.026Z,1011.89
2019-04-13T09:13:01.781Z,1011.94
2019-04-13T09:14:05.632Z,1011.91
2019-04-13T09:15:02.023Z,1011.90
2019-04-13T09:16:02.235Z,1011.80
2019-04-13T09:17:02.187Z,1011.78
2019-04-13T09:18:02.632Z,1011.79
2019-04-13T09:19:04.792Z,1011.78
2019-04-13T09:20:01.714Z,1011.83
2019-04-13T09:21:05.747Z,1011.81
2019-04-13T09:22:01.707Z,1011.90
2019-04-13T09:23:02.374Z,1011.83
2019-04-13T09:24:01.679Z,1011.85
2019-04-13T09:25:01.685Z,1011.75
2019-04-13T09:26:01.658Z,1011.76
2019-04-13T09:27:01.654Z,1011.75
2019-04-13T09:28:01.643Z,1011.73
2019-04-13T09:29:01.635Z,1011.73
2019-04-13T09:30:01.626Z,1011.72
2019-04-13T09:31:01.614Z,1011.72
2019-04-13T09:32:01.604Z,1011.80
2019-04-13T09:33:04.050Z,1011.83
2019-04-13T09:34:01.592Z,1011.80
2019-04-13T09:35:01.575Z,1011.81
2019-04-13T09:36:01.571Z,1011.77
2019-04-13T09:37:01.557Z,1011.83
2019-04-13T09:38:03.761Z,1011.77
2019-04-13T09:39:01.540Z,1011.77
2019-04-13T09:40:01.535Z,1011.78
2019-04-13T09:41:03.418Z,1011.71
2019-04-13T09:42:01.513Z,1011.67
2019-04-13T09:43:01.507Z,1011.67
2019-04-13T09:44:01.499Z,1011.65
2019-04-13T09:45:04.392Z,1011.70
2019-04-13T09:46:01.481Z,1011.66
2019-04-13T09:47:01.472Z,1011.66
2019-04-13T09:48:01.464Z,1011.64
2019-04-13T09:49:01.455Z,1011.62
2019-04-13T09:50:01.450Z,1011.62
2019-04-13T09:51:01.439Z,1011.65
2019-04-13T09:52:01.432Z,1011.64
2019-04-13T09:53:01.421Z,1011.64
2019-04-13T09:54:01.412Z,1011.66
2019-04-13T09:55:01.405Z,1011.69
2019-04-13T09:56:02.700Z,1011.67
2019-04-13T09:57:01.386Z,1011.64
2019-04-13T09:58:01.582Z,1011.58
2019-04-13T09:59:01.369Z,1011.58
2019-04-13T10:00:01.362Z,1011.57
2019-04-13T10:01:01.754Z,1011.55
2019-04-13T10:02:01.344Z,1011.56
2019-04-13T10:03:01.335Z,1011.52
2019-04-13T10:04:01.324Z,1011.49
2019-04-13T10:05:01.322Z,1011.43
2019-04-13T10:06:01.310Z,1011.52
2019-04-13T10:07:01.300Z,1011.54
2019-04-13T10:08:01.293Z,1011.50
2019-04-13T10:09:01.286Z,1011.46
2019-04-13T10:10:01.295Z,1011.44
2019-04-13T10:11:01.268Z,1011.49
2019-04-13T10:12:01.267Z,1011.42
2019-04-13T10:13:01.261Z,1011.45
2019-04-13T10:14:01.238Z,1011.42
2019-04-13T10:15:01.237Z,1011.42
2019-04-13T10:16:01.226Z,1011.44
2019-04-13T10:17:01.217Z,1011.38
2019-04-13T10:18:01.207Z,1011.34
2019-04-13T10:19:01.199Z,1011.33
2019-04-13T10:20:01.206Z,1011.38
2019-04-13T10:21:01.184Z,1011.37
2019-04-13T10:22:01.175Z,1011.38
2019-04-13T10:23:01.167Z,1011.36
2019-04-13T10:24:01.158Z,1011.37
2019-04-13T10:25:01.151Z,1011.36
2019-04-13T10:26:01.140Z,1011.34
2019-04-13T10:27:01.133Z,1011.31
2019-04-13T10:28:01.130Z,1011.27
2019-04-13T10:29:01.118Z,1011.27
2019-04-13T10:30:02.705Z,1011.30
2019-04-13T10:31:01.100Z,1011.23
2019-04-13T10:32:01.092Z,1011.24
2019-04-13T10:33:01.082Z,1011.24
2019-04-13T10:34:01.074Z,1011.21
2019-04-13T10:35:01.065Z,1011.19
2019-04-13T10:36:01.065Z,1011.22
2019-04-13T10:37:01.045Z,1011.22
2019-04-13T10:38:01.041Z,1011.20
2019-04-13T10:39:08.305Z,1011.18
2019-04-13T10:40:01.025Z,1011.22
2019-04-13T10:41:01.020Z,1011.15
2019-04-13T10:42:01.013Z,1011.13
2019-04-13T10:43:01.003Z,1011.19
2019-04-13T10:44:00.991Z,1011.18
2019-04-13T10:45:00.981Z,1011.20
2019-04-13T10:46:00.975Z,1011.19
2019-04-13T10:47:02.656Z,1011.18
2019-04-13T10:48:00.961Z,1011.19
2019-04-13T10:49:00.946Z,1011.16
2019-04-13T10:50:00.942Z,1011.17
2019-04-13T10:51:00.934Z,1011.19
2019-04-13T10:52:00.927Z,1011.22
2019-04-13T10:53:00.916Z,1011.22
2019-04-13T10:54:00.907Z,1011.17
2019-04-13T10:55:00.897Z,1011.22
2019-04-13T10:56:00.890Z,1011.19
2019-04-13T10:57:00.887Z,1011.19
2019-04-13T10:58:00.877Z,1011.15
2019-04-13T10:59:00.863Z,1011.09
2019-04-13T11:00:00.858Z,1011.06
2019-04-13T11:01:00.850Z,1011.08
2019-04-13T11:02:00.856Z,1011.07
2019-04-13T11:03:00.908Z,1011.07
2019-04-13T11:04:00.826Z,1011.06
2019-04-13T11:05:00.820Z,1011.09
2019-04-13T11:06:00.807Z,1011.05
2019-04-13T11:07:00.797Z,1011.08
2019-04-13T11:08:00.793Z,1011.09
2019-04-13T11:09:00.784Z,1011.10
2019-04-13T11:10:01.679Z,1011.12
2019-04-13T11:11:00.767Z,1011.08
2019-04-13T11:12:00.763Z,1011.11
2019-04-13T11:13:00.749Z,1011.08
2019-04-13T11:14:00.743Z,1011.04
2019-04-13T11:15:00.738Z,1011.04
2019-04-13T11:16:00.729Z,1011.05
2019-04-13T11:17:00.722Z,1011.03
2019-04-13T11:18:03.059Z,1011.07
2019-04-13T11:19:00.701Z,1011.04
2019-04-13T11:20:00.701Z,1011.06
2019-04-13T11:21:02.776Z,1011.07
2019-04-13T11:22:00.681Z,1011.06
2019-04-13T11:23:00.675Z,1011.04
2019-04-13T11:24:00.664Z,1011.06
2019-04-13T11:25:00.657Z,1011.03
2019-04-13T11:26:01.063Z,1011.08
2019-04-13T11:27:00.645Z,1011.11
2019-04-13T11:28:00.638Z,1011.09
2019-04-13T11:29:00.629Z,1011.03
2019-04-13T11:30:00.618Z,1011.13
2019-04-13T11:31:00.612Z,1011.13
2019-04-13T11:32:00.610Z,1011.15
2019-04-13T11:33:00.603Z,1011.10
2019-04-13T11:34:00.592Z,1011.09
2019-04-13T11:35:04.429Z,1011.15
2019-04-13T11:36:00.580Z,1011.11
2019-04-13T11:37:00.570Z,1011.07
2019-04-13T11:38:00.561Z,1011.00
2019-04-13T11:39:02.495Z,1011.03
2019-04-13T11:40:00.550Z,1011.01
2019-04-13T11:41:00.547Z,1010.96
2019-04-13T11:42:00.538Z,1010.94
2019-04-13T11:43:00.527Z,1010.92
2019-04-13T11:44:00.526Z,1010.95
2019-04-13T11:45:00.517Z,1010.81
2019-04-13T11:46:00.511Z,1010.78
2019-04-13T11:47:00.506Z,1010.75
2019-04-13T11:48:00.497Z,1010.75
2019-04-13T11:49:00.491Z,1010.75
2019-04-13T11:50:00.487Z,1010.70
2019-04-13T11:51:00.544Z,1010.69
2019-04-13T11:52:00.469Z,1010.70
2019-04-13T11:53:00.461Z,1010.71
2019-04-13T11:54:02.366Z,1010.73
2019-04-13T11:55:01.217Z,1010.68
2019-04-13T11:56:04.673Z,1010.67
2019-04-13T11:57:00.436Z,1010.70
2019-04-13T11:58:00.423Z,1010.66
2019-04-13T11:59:00.421Z,1010.65
2019-04-13T12:00:00.407Z,1010.65
2019-04-13T12:01:00.407Z,1010.64
2019-04-13T12:02:00.395Z,1010.60
2019-04-13T12:03:00.385Z,1010.66
2019-04-13T12:04:00.379Z,1010.64
2019-04-13T12:05:01.074Z,1010.61